createdAt,value
2018-04-08T00:00:21.689Z,12.1
2018-04-08T00:01:23.343Z,12.1
2018-04-08T00:02:25.012Z,12.0
2018-04-08T00:03:26.678Z,12.0
2018-04-08T00:04:28.358Z,12.0
2018-04-08T00:05:30.013Z,11.9
2018-04-08T00:06:31.657Z,11.9
2018-04-08T00:07:33.324Z,12.0
2018-04-08T00:08:34.990Z,12.0
2018-04-08T00:09:36.641Z,11.9
2018-04-08T00:10:38.298Z,12.0
2018-04-08T00:11:39.948Z,11.9
2018-04-08T00:12:41.599Z,11.9
2018-04-08T00:13:43.282Z,11.9
2018-04-08T00:14:44.940Z,11.9
2018-04-08T00:15:46.614Z,11.8
2018-04-08T00:16:48.255Z,11.8
2018-04-08T00:17:49.968Z,11.8
2018-04-08T00:18:51.629Z,11.8
2018-04-08T00:19:53.285Z,11.9
2018-04-08T00:20:54.958Z,11.8
2018-04-08T00:21:56.599Z,11.8
2018-04-08T00:22:58.252Z,11.8
2018-04-08T00:23:59.901Z,11.8
2018-04-08T00:25:01.556Z,11.8
2018-04-08T00:26:03.202Z,11.8
2018-04-08T00:27:04.860Z,11.8
2018-04-08T00:28:06.593Z,11.7
2018-04-08T00:29:08.284Z,11.8
2018-04-08T00:30:09.942Z,11.7
2018-04-08T00:31:11.591Z,11.7
2018-04-08T00:32:13.260Z,11.7
2018-04-08T00:33:14.905Z,11.8
2018-04-08T00:34:16.551Z,11.7
2018-04-08T00:35:18.221Z,11.7
2018-04-08T00:36:19.889Z,11.8
2018-04-08T00:37:21.560Z,11.8
2018-04-08T00:38:23.198Z,11.7
2018-04-08T00:39:24.851Z,11.7
2018-04-08T00:40:26.503Z,11.7
2018-04-08T00:41:28.164Z,11.7
2018-04-08T00:42:29.816Z,11.8
2018-04-08T00:43:31.467Z,11.7
2018-04-08T00:44:33.105Z,11.8
2018-04-08T00:45:34.757Z,11.8
2018-04-08T00:46:36.399Z,11.8
2018-04-08T00:47:38.060Z,11.6
2018-04-08T00:48:39.732Z,11.7
2018-04-08T00:49:41.398Z,11.7
2018-04-08T00:50:43.043Z,11.7
2018-04-08T00:51:44.687Z,11.8
2018-04-08T00:52:46.365Z,11.7
2018-04-08T00:53:48.009Z,11.7
2018-04-08T00:54:49.657Z,11.5
2018-04-08T00:55:51.313Z,11.5
2018-04-08T00:56:53.074Z,11.5
2018-04-08T00:57:54.755Z,11.5
2018-04-08T00:58:56.438Z,11.5
2018-04-08T00:59:58.094Z,11.5
2018-04-08T01:00:59.739Z,11.6
2018-04-08T01:02:01.422Z,11.5
2018-04-08T01:03:03.096Z,11.5
2018-04-08T01:04:04.760Z,11.5
2018-04-08T01:05:06.442Z,11.5
2018-04-08T01:06:08.110Z,11.5
2018-04-08T01:07:09.769Z,11.6
2018-04-08T01:08:11.438Z,11.6
2018-04-08T01:09:13.136Z,11.6
2018-04-08T01:10:14.806Z,11.6
2018-04-08T01:11:16.478Z,11.6
2018-04-08T01:12:18.162Z,11.5
2018-04-08T01:13:19.836Z,11.6
2018-04-08T01:14:21.493Z,11.6
2018-04-08T01:15:23.196Z,11.6
2018-04-08T01:16:24.851Z,11.6
2018-04-08T01:17:26.544Z,11.5
2018-04-08T01:18:28.209Z,11.6
2018-04-08T01:19:29.880Z,11.6
2018-04-08T01:20:31.551Z,11.8
2018-04-08T01:21:33.226Z,11.7
2018-04-08T01:22:34.888Z,11.7
2018-04-08T01:23:36.549Z,11.8
2018-04-08T01:24:38.205Z,11.7
2018-04-08T01:25:39.857Z,11.8
2018-04-08T01:26:41.501Z,11.9
2018-04-08T01:27:43.148Z,11.9
2018-04-08T01:28:44.795Z,11.9
2018-04-08T01:29:46.447Z,11.9
2018-04-08T01:30:48.088Z,11.9
2018-04-08T01:31:49.760Z,11.8
2018-04-08T01:32:51.431Z,11.9
2018-04-08T01:33:53.151Z,11.8
2018-04-08T01:34:54.872Z,11.8
2018-04-08T01:35:56.524Z,11.9
2018-04-08T01:36:58.181Z,11.8
2018-04-08T01:37:59.838Z,11.7
2018-04-08T01:39:01.516Z,11.9
2018-04-08T01:40:03.194Z,11.9
2018-04-08T01:41:04.839Z,11.9
2018-04-08T01:42:06.494Z,11.8
2018-04-08T01:43:08.143Z,11.8
2018-04-08T01:44:09.772Z,11.8
2018-04-08T01:45:11.424Z,11.8
2018-04-08T01:46:13.077Z,11.8
2018-04-08T01:47:14.722Z,11.8
2018-04-08T01:48:16.357Z,11.9
2018-04-08T01:49:18.032Z,11.9
2018-04-08T01:50:19.679Z,11.9
2018-04-08T01:51:21.318Z,11.9
2018-04-08T01:52:22.989Z,11.9
2018-04-08T01:53:24.613Z,11.9
2018-04-08T01:54:26.279Z,11.9
2018-04-08T01:55:27.923Z,11.9
2018-04-08T01:56:29.583Z,12.0
2018-04-08T01:57:31.230Z,11.9
2018-04-08T01:58:32.952Z,11.9
2018-04-08T01:59:34.605Z,12.0
2018-04-08T02:00:36.268Z,12.0
2018-04-08T02:01:37.946Z,12.0
2018-04-08T02:02:39.608Z,12.0
2018-04-08T02:03:41.285Z,12.0
2018-04-08T02:04:42.930Z,12.1
2018-04-08T02:05:44.580Z,12.0
2018-04-08T02:06:46.242Z,12.0
2018-04-08T02:07:47.898Z,12.0
2018-04-08T02:08:49.566Z,11.9
2018-04-08T02:09:51.212Z,11.9
2018-04-08T02:10:52.876Z,12.0
2018-04-08T02:11:54.544Z,11.9
2018-04-08T02:12:56.198Z,12.0
2018-04-08T02:13:57.844Z,12.1
2018-04-08T02:14:59.524Z,12.0
2018-04-08T02:16:01.182Z,12.0
2018-04-08T02:17:02.846Z,12.0
2018-04-08T02:18:04.491Z,12.1
2018-04-08T02:19:06.148Z,12.0
2018-04-08T02:20:07.791Z,12.0
2018-04-08T02:21:09.429Z,12.0
2018-04-08T02:22:11.071Z,12.0
2018-04-08T02:23:12.747Z,12.0
2018-04-08T02:24:14.393Z,12.1
2018-04-08T02:25:16.075Z,11.9
2018-04-08T02:26:17.734Z,11.9
2018-04-08T02:27:19.397Z,11.9
2018-04-08T02:28:21.058Z,12.1
2018-04-08T02:29:22.696Z,12.0
2018-04-08T02:30:24.362Z,12.0
2018-04-08T02:31:26.017Z,12.0
2018-04-08T02:32:27.712Z,11.9
2018-04-08T02:33:29.375Z,12.0
2018-04-08T02:34:31.027Z,12.0
2018-04-08T02:35:32.702Z,12.0
2018-04-08T02:36:34.388Z,12.0
2018-04-08T02:37:36.085Z,12.0
2018-04-08T02:38:37.758Z,12.1
2018-04-08T02:39:39.406Z,12.1
2018-04-08T02:40:41.057Z,12.0
2018-04-08T02:41:42.717Z,12.0
2018-04-08T02:42:44.376Z,12.1
2018-04-08T02:43:46.038Z,12.2
2018-04-08T02:44:47.671Z,12.2
2018-04-08T02:45:49.328Z,12.3
2018-04-08T02:46:50.967Z,12.3
2018-04-08T02:47:52.625Z,12.3
2018-04-08T02:48:54.289Z,12.3
2018-04-08T02:49:55.969Z,12.2
2018-04-08T02:50:57.644Z,12.2
2018-04-08T02:51:59.290Z,12.4
2018-04-08T02:53:00.958Z,12.4
2018-04-08T02:54:02.636Z,12.5
2018-04-08T02:55:04.318Z,12.5
2018-04-08T02:56:05.992Z,12.5
2018-04-08T02:57:07.644Z,12.6
2018-04-08T02:58:09.318Z,12.7
2018-04-08T02:59:11.051Z,12.7
2018-04-08T03:00:12.727Z,12.7
2018-04-08T03:01:14.391Z,12.7
2018-04-08T03:02:16.062Z,12.8
2018-04-08T03:03:17.722Z,12.8
2018-04-08T03:04:19.376Z,12.7
2018-04-08T03:05:21.033Z,12.9
2018-04-08T03:06:22.706Z,12.8
2018-04-08T03:07:24.360Z,12.7
2018-04-08T03:08:26.038Z,12.7
2018-04-08T03:09:27.681Z,12.7
2018-04-08T03:10:29.326Z,12.8
2018-04-08T03:11:30.982Z,12.7
2018-04-08T03:12:32.636Z,12.7
2018-04-08T03:13:34.289Z,12.7
2018-04-08T03:14:35.934Z,12.7
2018-04-08T03:15:37.588Z,12.7
2018-04-08T03:16:39.269Z,12.7
2018-04-08T03:17:40.938Z,12.7
2018-04-08T03:18:42.596Z,12.7
2018-04-08T03:19:44.247Z,12.7
2018-04-08T03:20:45.885Z,12.7
2018-04-08T03:21:47.528Z,12.6
2018-04-08T03:22:49.176Z,12.7
2018-04-08T03:23:50.832Z,12.7
2018-04-08T03:24:52.484Z,12.7
2018-04-08T03:25:54.135Z,12.7
2018-04-08T03:26:55.782Z,12.8
2018-04-08T03:27:57.418Z,12.7
2018-04-08T03:28:59.065Z,12.7
2018-04-08T03:30:00.734Z,12.8
2018-04-08T03:31:02.414Z,12.8
2018-04-08T03:32:04.056Z,12.7
2018-04-08T03:33:05.737Z,12.9
2018-04-08T03:34:07.401Z,12.9
2018-04-08T03:35:09.049Z,12.8
2018-04-08T03:36:10.704Z,13.0
2018-04-08T03:37:12.355Z,13.0
2018-04-08T03:38:14.012Z,12.8
2018-04-08T03:39:15.670Z,13.0
2018-04-08T03:40:17.319Z,13.0
2018-04-08T03:41:18.955Z,12.8
2018-04-08T03:42:20.591Z,13.0
2018-04-08T03:43:22.255Z,13.0
2018-04-08T03:44:23.913Z,12.9
2018-04-08T03:45:25.568Z,13.0
2018-04-08T03:46:27.229Z,13.0
2018-04-08T03:47:28.867Z,13.0
2018-04-08T03:48:30.572Z,13.0
2018-04-08T03:49:32.175Z,13.0
2018-04-08T03:50:33.833Z,13.0
2018-04-08T03:51:35.497Z,13.0
2018-04-08T03:52:37.135Z,13.0
2018-04-08T03:53:38.819Z,13.1
2018-04-08T03:54:40.471Z,13.1
2018-04-08T03:55:42.145Z,13.1
2018-04-08T03:56:43.798Z,13.1
2018-04-08T03:57:45.441Z,13.1
2018-04-08T03:58:47.083Z,13.1
2018-04-08T03:59:48.742Z,13.1
2018-04-08T04:00:50.393Z,13.1
2018-04-08T04:01:52.063Z,13.1
2018-04-08T04:02:53.722Z,13.1
2018-04-08T04:03:55.369Z,13.1
2018-04-08T04:04:57.015Z,13.1
2018-04-08T04:05:58.677Z,13.1
2018-04-08T04:07:00.323Z,13.0
2018-04-08T04:08:01.994Z,13.0
2018-04-08T04:09:03.627Z,13.0
2018-04-08T04:10:05.277Z,12.9
2018-04-08T04:11:06.933Z,13.0
2018-04-08T04:12:08.604Z,13.0
2018-04-08T04:13:10.260Z,13.0
2018-04-08T04:14:11.902Z,13.0
2018-04-08T04:15:13.547Z,13.0
2018-04-08T04:16:15.208Z,13.0
2018-04-08T04:17:16.863Z,13.0
2018-04-08T04:18:18.518Z,13.0
2018-04-08T04:19:20.184Z,13.0
2018-04-08T04:20:21.825Z,13.0
2018-04-08T04:21:23.477Z,13.1
2018-04-08T04:22:25.125Z,13.0
2018-04-08T04:23:26.757Z,12.9
2018-04-08T04:24:28.405Z,12.9
2018-04-08T04:25:30.093Z,13.0
2018-04-08T04:26:31.761Z,13.0
2018-04-08T04:27:33.427Z,12.9
2018-04-08T04:28:35.104Z,13.0
2018-04-08T04:29:36.752Z,12.8
2018-04-08T04:30:38.416Z,13.0
2018-04-08T04:31:40.065Z,12.9
2018-04-08T04:32:41.705Z,12.9
2018-04-08T04:33:43.397Z,13.0
2018-04-08T04:34:45.038Z,13.0
2018-04-08T04:35:46.691Z,13.0
2018-04-08T04:36:48.339Z,13.0
2018-04-08T04:37:50.029Z,13.0
2018-04-08T04:38:51.667Z,13.0
2018-04-08T04:39:53.302Z,12.9
2018-04-08T04:40:54.967Z,13.0
2018-04-08T04:41:56.622Z,13.0
2018-04-08T04:42:58.284Z,13.1
2018-04-08T04:43:59.939Z,13.1
2018-04-08T04:45:01.604Z,13.1
2018-04-08T04:46:03.249Z,13.2
2018-04-08T04:47:04.909Z,13.2
2018-04-08T04:48:06.588Z,13.2
2018-04-08T04:49:08.250Z,13.2
2018-04-08T04:50:09.907Z,13.2
2018-04-08T04:51:11.596Z,13.1
2018-04-08T04:52:13.227Z,13.1
2018-04-08T04:53:14.886Z,13.2
2018-04-08T04:54:16.559Z,13.1
2018-04-08T04:55:18.204Z,13.0
2018-04-08T04:56:19.869Z,13.1
2018-04-08T04:57:21.530Z,13.2
2018-04-08T04:58:23.183Z,13.1
2018-04-08T04:59:24.839Z,13.1
2018-04-08T05:00:26.483Z,13.0
2018-04-08T05:01:28.140Z,13.0
2018-04-08T05:02:29.802Z,13.0
2018-04-08T05:03:31.462Z,13.0
2018-04-08T05:04:33.111Z,13.0
2018-04-08T05:05:34.745Z,13.0
2018-04-08T05:06:36.404Z,13.0
2018-04-08T05:07:38.074Z,13.0
2018-04-08T05:08:39.730Z,13.0
2018-04-08T05:09:41.380Z,13.0
2018-04-08T05:10:43.041Z,13.0
2018-04-08T05:11:44.687Z,13.0
2018-04-08T05:12:46.328Z,13.0
2018-04-08T05:13:47.989Z,13.1
2018-04-08T05:14:49.656Z,13.1
2018-04-08T05:15:51.320Z,13.0
2018-04-08T05:16:52.956Z,13.0
2018-04-08T05:17:54.605Z,13.0
2018-04-08T05:18:56.268Z,13.0
2018-04-08T05:19:57.924Z,13.0
2018-04-08T05:20:59.588Z,13.0
2018-04-08T05:22:01.228Z,13.0
2018-04-08T05:23:02.891Z,13.1
2018-04-08T05:24:04.556Z,13.1
2018-04-08T05:25:06.245Z,13.2
2018-04-08T05:26:07.860Z,13.1
2018-04-08T05:27:09.518Z,13.1
2018-04-08T05:28:11.197Z,13.1
2018-04-08T05:29:12.859Z,13.1
2018-04-08T05:30:14.520Z,13.1
2018-04-08T05:31:16.216Z,13.1
2018-04-08T05:32:17.873Z,13.1
2018-04-08T05:33:19.559Z,13.1
2018-04-08T05:34:21.228Z,13.1
2018-04-08T05:35:22.918Z,13.2
2018-04-08T05:36:24.575Z,13.1
2018-04-08T05:37:26.231Z,13.1
2018-04-08T05:38:27.883Z,13.1
2018-04-08T05:39:29.544Z,13.1
2018-04-08T05:40:31.209Z,13.1
2018-04-08T05:41:32.907Z,13.1
2018-04-08T05:42:34.577Z,13.1
2018-04-08T05:43:36.252Z,13.1
2018-04-08T05:44:37.902Z,13.2
2018-04-08T05:45:39.553Z,13.2
2018-04-08T05:46:41.242Z,13.3
2018-04-08T05:47:42.892Z,13.3
2018-04-08T05:48:44.557Z,13.3
2018-04-08T05:49:46.225Z,13.3
2018-04-08T05:50:47.878Z,13.3
2018-04-08T05:51:49.524Z,13.3
2018-04-08T05:52:51.168Z,13.3
2018-04-08T05:53:52.824Z,13.3
2018-04-08T05:54:54.455Z,13.3
2018-04-08T05:55:56.099Z,13.3
2018-04-08T05:56:57.732Z,13.3
2018-04-08T05:57:59.384Z,13.3
2018-04-08T05:59:01.036Z,13.4
2018-04-08T06:00:02.712Z,13.5
2018-04-08T06:01:04.367Z,13.5
2018-04-08T06:02:06.017Z,13.4
2018-04-08T06:03:07.652Z,13.4
2018-04-08T06:04:09.331Z,13.4
2018-04-08T06:05:10.996Z,13.4
2018-04-08T06:06:12.673Z,13.4
2018-04-08T06:07:14.350Z,13.3
2018-04-08T06:08:15.994Z,13.4
2018-04-08T06:09:17.647Z,13.3
2018-04-08T06:10:19.311Z,13.4
2018-04-08T06:11:20.975Z,13.3
2018-04-08T06:12:22.610Z,13.3
2018-04-08T06:13:24.290Z,13.3
2018-04-08T06:14:25.936Z,13.4
2018-04-08T06:15:27.592Z,13.5
2018-04-08T06:16:29.275Z,13.3
2018-04-08T06:17:30.960Z,13.4
2018-04-08T06:18:32.555Z,13.4
2018-04-08T06:19:34.227Z,13.4
2018-04-08T06:20:35.869Z,13.4
2018-04-08T06:21:37.550Z,13.5
2018-04-08T06:22:39.226Z,13.4
2018-04-08T06:23:40.881Z,13.4
2018-04-08T06:24:42.547Z,13.4
2018-04-08T06:25:44.214Z,13.4
2018-04-08T06:26:45.869Z,13.4
2018-04-08T06:27:47.516Z,13.4
2018-04-08T06:28:49.156Z,13.4
2018-04-08T06:29:50.795Z,13.3
2018-04-08T06:30:52.470Z,13.4
2018-04-08T06:31:54.130Z,13.4
2018-04-08T06:32:55.793Z,13.5
2018-04-08T06:33:57.472Z,13.4
2018-04-08T06:34:59.145Z,13.4
2018-04-08T06:36:00.814Z,13.4
2018-04-08T06:37:02.468Z,13.5
2018-04-08T06:38:04.127Z,13.5
2018-04-08T06:39:05.771Z,13.6
2018-04-08T06:40:07.414Z,13.7
2018-04-08T06:41:09.055Z,13.6
2018-04-08T06:42:10.702Z,13.6
2018-04-08T06:43:12.372Z,13.6
2018-04-08T06:44:14.032Z,13.7
2018-04-08T06:45:15.679Z,13.7
2018-04-08T06:46:17.325Z,13.6
2018-04-08T06:47:18.994Z,13.7
2018-04-08T06:48:20.661Z,13.6
2018-04-08T06:49:22.347Z,13.6
2018-04-08T06:50:24.002Z,13.6
2018-04-08T06:51:25.724Z,13.7
2018-04-08T06:52:27.379Z,13.7
2018-04-08T06:53:29.053Z,13.7
2018-04-08T06:54:30.721Z,13.7
2018-04-08T06:55:32.378Z,13.7
2018-04-08T06:56:34.037Z,13.7
2018-04-08T06:57:35.698Z,13.7
2018-04-08T06:58:37.372Z,13.6
2018-04-08T06:59:39.028Z,13.8
2018-04-08T07:00:40.697Z,13.8
2018-04-08T07:01:42.370Z,13.7
2018-04-08T07:02:44.038Z,13.8
2018-04-08T07:03:45.812Z,13.7
2018-04-08T07:04:47.475Z,13.8
2018-04-08T07:05:49.130Z,13.8
2018-04-08T07:06:50.801Z,13.8
2018-04-08T07:07:52.477Z,13.8
2018-04-08T07:08:54.154Z,13.7
2018-04-08T07:09:55.819Z,13.7
2018-04-08T07:10:57.478Z,13.8
2018-04-08T07:11:59.168Z,13.8
2018-04-08T07:13:00.857Z,13.8
2018-04-08T07:14:02.533Z,13.7
2018-04-08T07:15:04.185Z,13.7
2018-04-08T07:16:05.883Z,13.8
2018-04-08T07:17:07.551Z,13.8
2018-04-08T07:18:09.214Z,13.8
2018-04-08T07:19:10.879Z,13.9
2018-04-08T07:20:12.545Z,14.0
2018-04-08T07:21:14.202Z,13.9
2018-04-08T07:22:15.882Z,14.0
2018-04-08T07:23:17.611Z,14.0
2018-04-08T07:24:19.263Z,14.0
2018-04-08T07:25:20.959Z,14.0
2018-04-08T07:26:22.637Z,14.1
2018-04-08T07:27:24.282Z,14.1
2018-04-08T07:28:25.969Z,13.9
2018-04-08T07:29:27.656Z,14.0
2018-04-08T07:30:29.324Z,13.9
2018-04-08T07:31:30.975Z,13.9
2018-04-08T07:32:32.636Z,13.9
2018-04-08T07:33:34.309Z,13.8
2018-04-08T07:34:36.135Z,13.8
2018-04-08T07:35:37.809Z,13.9
2018-04-08T07:36:39.492Z,13.8
2018-04-08T07:37:41.211Z,13.9
2018-04-08T07:38:42.831Z,14.0
2018-04-08T07:39:44.515Z,14.0
2018-04-08T07:40:46.177Z,14.0
2018-04-08T07:41:47.823Z,13.9
2018-04-08T07:42:49.471Z,14.1
2018-04-08T07:43:51.119Z,14.1
2018-04-08T07:44:52.773Z,14.1
2018-04-08T07:45:54.434Z,14.1
2018-04-08T07:46:56.091Z,14.0
2018-04-08T07:47:57.781Z,14.1
2018-04-08T07:48:59.436Z,14.1
2018-04-08T07:50:01.138Z,14.2
2018-04-08T07:51:02.762Z,14.1
2018-04-08T07:52:04.394Z,14.2
2018-04-08T07:53:06.066Z,14.2
2018-04-08T07:54:07.748Z,14.2
2018-04-08T07:55:09.502Z,14.2
2018-04-08T07:56:11.149Z,14.2
2018-04-08T07:57:12.812Z,14.2
2018-04-08T07:58:14.511Z,14.2
2018-04-08T07:59:16.158Z,14.2
2018-04-08T08:00:17.826Z,14.2
2018-04-08T08:01:19.490Z,14.3
2018-04-08T08:02:21.283Z,14.3
2018-04-08T08:03:22.971Z,14.2
2018-04-08T08:04:24.640Z,14.2
2018-04-08T08:05:26.593Z,14.3
2018-04-08T08:06:28.635Z,14.3
2018-04-08T08:07:30.315Z,14.4
2018-04-08T08:08:31.968Z,14.4
2018-04-08T08:09:33.648Z,14.4
2018-04-08T08:10:35.588Z,14.4
2018-04-08T08:11:37.342Z,14.3
2018-04-08T08:12:39.005Z,14.5
2018-04-08T08:13:40.721Z,14.5
2018-04-08T08:14:42.392Z,14.6
2018-04-08T08:15:44.065Z,14.6
2018-04-08T08:16:47.305Z,14.5
2018-04-08T08:17:52.322Z,14.5
2018-04-08T08:18:54.157Z,14.4
2018-04-08T08:19:55.815Z,14.5
2018-04-08T08:20:57.483Z,14.5
2018-04-08T08:21:59.215Z,14.5
2018-04-08T08:23:00.991Z,14.4
2018-04-08T08:24:02.616Z,14.5
2018-04-08T08:25:07.674Z,14.5
2018-04-08T08:26:10.139Z,14.4
2018-04-08T08:27:12.247Z,14.5
2018-04-08T08:28:13.888Z,14.5
2018-04-08T08:29:15.615Z,14.5
2018-04-08T08:30:17.286Z,14.5
2018-04-08T08:31:19.032Z,14.6
2018-04-08T08:32:20.686Z,14.7
2018-04-08T08:33:22.406Z,14.8
2018-04-08T08:34:24.092Z,14.7
2018-04-08T08:35:25.768Z,14.7
2018-04-08T08:36:27.526Z,14.6
2018-04-08T08:37:29.187Z,14.7
2018-04-08T08:38:31.003Z,14.7
2018-04-08T08:39:32.656Z,14.6
2018-04-08T08:40:34.337Z,14.7
2018-04-08T08:41:35.997Z,14.7
2018-04-08T08:42:38.030Z,14.8
2018-04-08T08:43:39.692Z,14.8
2018-04-08T08:44:41.356Z,14.7
2018-04-08T08:45:43.022Z,14.9
2018-04-08T08:46:44.678Z,15.0
2018-04-08T08:47:46.345Z,14.9
2018-04-08T08:48:48.057Z,14.9
2018-04-08T08:49:49.722Z,15.0
2018-04-08T08:50:51.395Z,15.0
2018-04-08T08:51:53.273Z,15.1
2018-04-08T08:52:54.945Z,15.2
2018-04-08T08:53:56.621Z,15.4
2018-04-08T08:54:58.379Z,15.4
2018-04-08T08:56:00.059Z,15.4
2018-04-08T08:57:01.837Z,15.3
2018-04-08T08:58:03.507Z,15.3
2018-04-08T08:59:05.506Z,15.2
2018-04-08T09:00:07.316Z,15.2
2018-04-08T09:01:09.028Z,15.2
2018-04-08T09:02:10.721Z,15.0
2018-04-08T09:03:12.385Z,15.2
2018-04-08T09:04:14.062Z,15.3
2018-04-08T09:05:15.714Z,15.4
2018-04-08T09:06:17.529Z,15.4
2018-04-08T09:07:19.183Z,15.3
2018-04-08T09:08:20.877Z,15.0
2018-04-08T09:09:22.599Z,15.0
2018-04-08T09:10:24.270Z,14.9
2018-04-08T09:11:25.937Z,15.1
2018-04-08T09:12:27.687Z,15.1
2018-04-08T09:13:29.357Z,15.4
2018-04-08T09:14:31.035Z,15.4
2018-04-08T09:15:32.702Z,15.3
2018-04-08T09:16:34.377Z,15.3
2018-04-08T09:17:36.062Z,15.2
2018-04-08T09:18:37.742Z,15.2
2018-04-08T09:19:39.428Z,15.2
2018-04-08T09:20:41.093Z,15.2
2018-04-08T09:21:42.751Z,15.2
2018-04-08T09:22:44.407Z,15.4
2018-04-08T09:23:46.092Z,15.3
2018-04-08T09:24:47.849Z,15.2
2018-04-08T09:25:49.591Z,15.3
2018-04-08T09:26:51.269Z,15.3
2018-04-08T09:27:52.993Z,15.4
2018-04-08T09:28:54.702Z,15.2
2018-04-08T09:29:56.582Z,15.5
2018-04-08T09:30:58.238Z,15.4
2018-04-08T09:31:59.926Z,15.4
2018-04-08T09:33:01.605Z,15.2
2018-04-08T09:34:03.274Z,15.3
2018-04-08T09:35:04.967Z,15.4
2018-04-08T09:36:06.636Z,15.5
2018-04-08T09:37:08.309Z,15.7
2018-04-08T09:38:09.958Z,15.5
2018-04-08T09:39:11.794Z,15.7
2018-04-08T09:40:13.461Z,15.4
2018-04-08T09:41:15.136Z,15.5
2018-04-08T09:42:16.946Z,15.7
2018-04-08T09:43:18.598Z,15.7
2018-04-08T09:44:20.281Z,15.7
2018-04-08T09:45:21.969Z,15.7
2018-04-08T09:46:23.647Z,15.8
2018-04-08T09:47:25.328Z,15.5
2018-04-08T09:48:26.993Z,15.3
2018-04-08T09:49:28.787Z,15.1
2018-04-08T09:50:30.471Z,15.0
2018-04-08T09:51:32.140Z,15.2
2018-04-08T09:52:33.862Z,15.1
2018-04-08T09:53:35.565Z,15.1
2018-04-08T09:54:37.256Z,15.3
2018-04-08T09:55:39.107Z,15.2
2018-04-08T09:56:40.785Z,15.0
2018-04-08T09:57:42.446Z,15.0
2018-04-08T09:58:44.129Z,14.9
2018-04-08T09:59:45.835Z,14.9
2018-04-08T10:00:47.724Z,14.9
2018-04-08T10:01:49.419Z,14.9
2018-04-08T10:02:51.138Z,15.0
2018-04-08T10:03:52.875Z,14.9
2018-04-08T10:04:54.671Z,15.1
2018-04-08T10:05:56.642Z,15.1
2018-04-08T10:06:58.319Z,15.2
2018-04-08T10:07:59.982Z,14.9
2018-04-08T10:09:01.682Z,15.3
2018-04-08T10:10:03.364Z,15.3
2018-04-08T10:11:05.043Z,15.3
2018-04-08T10:12:06.731Z,15.1
2018-04-08T10:13:08.409Z,15.1
2018-04-08T10:14:10.088Z,15.2
2018-04-08T10:15:11.774Z,15.2
2018-04-08T10:16:13.457Z,15.1
2018-04-08T10:17:15.125Z,15.2
2018-04-08T10:18:16.806Z,15.2
2018-04-08T10:19:18.476Z,15.4
2018-04-08T10:20:20.179Z,15.6
2018-04-08T10:21:21.967Z,15.7
2018-04-08T10:22:23.666Z,15.6
2018-04-08T10:23:25.421Z,15.5
2018-04-08T10:24:27.182Z,15.4
2018-04-08T10:25:28.868Z,15.3
2018-04-08T10:26:30.542Z,15.4
2018-04-08T10:27:32.308Z,15.6
2018-04-08T10:28:34.202Z,15.7
2018-04-08T10:29:35.871Z,15.8
2018-04-08T10:30:37.564Z,16.0
2018-04-08T10:31:39.263Z,15.9
2018-04-08T10:32:41.011Z,15.7
2018-04-08T10:33:42.670Z,15.8
2018-04-08T10:34:44.341Z,15.6
2018-04-08T10:35:45.999Z,15.7
2018-04-08T10:36:47.812Z,15.6
2018-04-08T10:37:49.506Z,15.6
2018-04-08T10:38:51.182Z,15.7
2018-04-08T10:39:52.840Z,15.5
2018-04-08T10:40:54.525Z,15.6
2018-04-08T10:41:56.243Z,15.7
2018-04-08T10:42:57.962Z,15.5
2018-04-08T10:43:59.643Z,15.5
2018-04-08T10:45:01.403Z,15.4
2018-04-08T10:46:03.090Z,15.5
2018-04-08T10:47:04.781Z,15.6
2018-04-08T10:48:06.471Z,15.7
2018-04-08T10:49:08.186Z,15.8
2018-04-08T10:50:09.862Z,15.7
2018-04-08T10:51:11.558Z,15.7
2018-04-08T10:52:13.253Z,16.2
2018-04-08T10:53:14.914Z,15.9
2018-04-08T10:54:16.787Z,15.9
2018-04-08T10:55:18.921Z,15.7
2018-04-08T10:56:20.590Z,15.8
2018-04-08T10:57:22.242Z,15.8
2018-04-08T10:58:23.909Z,15.8
2018-04-08T10:59:25.609Z,16.0
2018-04-08T11:00:27.282Z,15.6
2018-04-08T11:01:28.951Z,15.4
2018-04-08T11:02:30.631Z,15.5
2018-04-08T11:03:32.335Z,15.5
2018-04-08T11:04:34.026Z,15.5
2018-04-08T11:05:35.713Z,15.8
2018-04-08T11:06:37.399Z,15.9
2018-04-08T11:07:39.126Z,16.0
2018-04-08T11:08:40.915Z,16.0
2018-04-08T11:09:42.627Z,15.7
2018-04-08T11:10:44.302Z,15.5
2018-04-08T11:11:45.964Z,15.5
2018-04-08T11:12:47.632Z,15.6
2018-04-08T11:13:49.318Z,15.7
2018-04-08T11:14:51.000Z,15.6
2018-04-08T11:15:52.696Z,15.7
2018-04-08T11:16:54.442Z,15.4
2018-04-08T11:17:56.104Z,15.3
2018-04-08T11:18:57.780Z,15.0
2018-04-08T11:19:59.545Z,14.6
2018-04-08T11:21:01.209Z,14.3
2018-04-08T11:22:02.876Z,14.3
2018-04-08T11:23:04.554Z,14.1
2018-04-08T11:24:06.230Z,14.0
2018-04-08T11:25:07.924Z,13.8
2018-04-08T11:26:09.611Z,13.9
2018-04-08T11:27:11.380Z,14.2
2018-04-08T11:28:13.055Z,14.3
2018-04-08T11:29:14.732Z,14.6
2018-04-08T11:30:16.533Z,14.9
2018-04-08T11:31:18.219Z,15.2
2018-04-08T11:32:19.910Z,15.3
2018-04-08T11:33:21.611Z,15.2
2018-04-08T11:34:23.357Z,15.1
2018-04-08T11:35:25.045Z,15.1
2018-04-08T11:36:26.824Z,14.9
2018-04-08T11:37:29.855Z,14.6
2018-04-08T11:38:31.529Z,14.7
2018-04-08T11:39:33.213Z,14.6
2018-04-08T11:40:34.890Z,14.7
2018-04-08T11:41:36.538Z,15.0
2018-04-08T11:42:38.212Z,14.8
2018-04-08T11:43:39.916Z,14.8
2018-04-08T11:44:41.589Z,14.9
2018-04-08T11:45:43.289Z,15.0
2018-04-08T11:46:44.998Z,15.0
2018-04-08T11:47:46.702Z,14.7
2018-04-08T11:48:48.397Z,14.6
2018-04-08T11:49:50.052Z,14.7
2018-04-08T11:50:52.596Z,14.7
2018-04-08T11:51:54.347Z,14.7
2018-04-08T11:52:55.990Z,14.7
2018-04-08T11:53:57.650Z,14.9
2018-04-08T11:54:59.302Z,15.1
2018-04-08T11:56:00.980Z,15.1
2018-04-08T11:57:02.651Z,15.1
2018-04-08T11:58:04.304Z,15.1
2018-04-08T11:59:05.981Z,15.3
2018-04-08T12:00:07.653Z,15.4
2018-04-08T12:01:09.332Z,16.0
2018-04-08T12:02:10.986Z,15.7
2018-04-08T12:03:12.651Z,16.0
2018-04-08T12:04:14.302Z,16.1
2018-04-08T12:05:15.986Z,16.2
2018-04-08T12:06:17.636Z,16.2
2018-04-08T12:07:19.314Z,16.6
2018-04-08T12:08:20.991Z,17.3
2018-04-08T12:09:22.666Z,16.5
2018-04-08T12:10:24.317Z,17.2
2018-04-08T12:11:25.997Z,16.8
2018-04-08T12:12:27.660Z,17.0
2018-04-08T12:13:29.347Z,17.2
2018-04-08T12:14:31.031Z,17.0
2018-04-08T12:15:32.701Z,16.8
2018-04-08T12:16:34.379Z,16.6
2018-04-08T12:17:36.098Z,16.5
2018-04-08T12:18:37.783Z,16.3
2018-04-08T12:19:39.460Z,16.0
2018-04-08T12:20:41.147Z,16.2
2018-04-08T12:21:42.804Z,16.5
2018-04-08T12:22:44.495Z,16.6
2018-04-08T12:23:46.204Z,16.9
2018-04-08T12:24:47.862Z,16.9
2018-04-08T12:25:49.537Z,16.3
2018-04-08T12:26:51.197Z,16.2
2018-04-08T12:27:52.853Z,16.0
2018-04-08T12:28:54.593Z,16.1
2018-04-08T12:29:56.302Z,16.3
2018-04-08T12:30:57.963Z,16.4
2018-04-08T12:31:59.625Z,16.1
2018-04-08T12:33:01.279Z,16.3
2018-04-08T12:34:02.944Z,16.4
2018-04-08T12:35:04.605Z,16.6
2018-04-08T12:36:06.305Z,16.7
2018-04-08T12:37:07.971Z,17.0
2018-04-08T12:38:09.647Z,17.1
2018-04-08T12:39:11.313Z,16.7
2018-04-08T12:40:12.982Z,16.4
2018-04-08T12:41:14.644Z,16.4
2018-04-08T12:42:16.320Z,16.8
2018-04-08T12:43:17.990Z,16.8
2018-04-08T12:44:19.679Z,17.1
2018-04-08T12:45:21.342Z,17.3
2018-04-08T12:46:23.009Z,17.6
2018-04-08T12:47:24.680Z,17.4
2018-04-08T12:48:26.392Z,17.0
2018-04-08T12:49:28.055Z,16.8
2018-04-08T12:50:29.754Z,17.1
2018-04-08T12:51:31.421Z,16.8
2018-04-08T12:52:33.105Z,16.6
2018-04-08T12:53:34.766Z,16.7
2018-04-08T12:54:36.431Z,16.8
2018-04-08T12:55:38.101Z,16.9
2018-04-08T12:56:39.778Z,16.8
2018-04-08T12:57:41.474Z,17.2
2018-04-08T12:58:43.131Z,16.7
2018-04-08T12:59:44.806Z,16.6
2018-04-08T13:00:46.460Z,16.7
2018-04-08T13:01:48.124Z,16.4
2018-04-08T13:02:49.794Z,16.6
2018-04-08T13:03:51.466Z,17.0
2018-04-08T13:04:53.137Z,17.4
2018-04-08T13:05:54.809Z,17.3
2018-04-08T13:06:56.489Z,16.9
2018-04-08T13:07:58.146Z,16.8
2018-04-08T13:08:59.813Z,16.8
2018-04-08T13:10:01.479Z,16.3
2018-04-08T13:11:03.147Z,16.5
2018-04-08T13:12:04.809Z,16.5
2018-04-08T13:13:06.477Z,16.2
2018-04-08T13:14:08.197Z,16.0
2018-04-08T13:15:09.850Z,16.2
2018-04-08T13:16:11.523Z,16.0
2018-04-08T13:17:13.189Z,16.1
2018-04-08T13:18:14.847Z,16.2
2018-04-08T13:19:16.556Z,16.5
2018-04-08T13:20:18.229Z,16.3
2018-04-08T13:21:19.910Z,16.0
2018-04-08T13:22:21.612Z,16.3
2018-04-08T13:23:23.278Z,16.1
2018-04-08T13:24:24.937Z,16.0
2018-04-08T13:25:26.624Z,16.0
2018-04-08T13:26:28.270Z,16.0
2018-04-08T13:27:29.931Z,16.1
2018-04-08T13:28:31.598Z,16.2
2018-04-08T13:29:33.265Z,16.3
2018-04-08T13:30:34.928Z,16.1
2018-04-08T13:31:36.618Z,16.2
2018-04-08T13:32:38.301Z,15.8
2018-04-08T13:33:39.982Z,15.7
2018-04-08T13:34:41.755Z,15.8
2018-04-08T13:35:43.411Z,15.5
2018-04-08T13:36:45.103Z,15.5
2018-04-08T13:37:46.783Z,15.4
2018-04-08T13:38:48.448Z,15.5
2018-04-08T13:39:50.123Z,15.3
2018-04-08T13:40:51.839Z,15.3